sensor_id;sensor_type;location;lat;lon;timestamp;P1;durP1;ratioP1;P2;durP2;ratioP2
17449;SDS011;8842;51.244;7.102;2024-03-23T00:53:02;12.33;;;11.73;;
17449;SDS011;8842;51.244;7.102;2024-03-23T00:58:06;12.80;;;12.10;;
17449;SDS011;8842;51.244;7.102;2024-03-23T01:03:18;13.23;;;12.53;;
17449;SDS011;8842;51.244;7.102;2024-03-23T01:08:22;13.47;;;12.77;;
17449;SDS011;8842;51.244;7.102;2024-03-23T01:13:27;13.07;;;12.37;;
17449;SDS011;8842;51.244;7.102;2024-03-23T01:18:41;13.60;;;12.90;;
17449;SDS011;8842;51.244;7.102;2024-03-23T01:23:45;13.70;;;13.00;;
17449;SDS011;8842;51.244;7.102;2024-03-23T01:28:57;13.37;;;12.67;;
17449;SDS011;8842;51.244;7.102;2024-03-23T01:34:01;13.30;;;12.60;;
17449;SDS011;8842;51.244;7.102;2024-03-23T01:39:05;13.90;;;13.20;;
17449;SDS011;8842;51.244;7.102;2024-03-23T01:44:17;13.60;;;12.90;;
17449;SDS011;8842;51.244;7.102;2024-03-23T01:49:21;13.50;;;12.80;;
17449;SDS011;8842;51.244;7.102;2024-03-23T01:54:25;13.30;;;12.60;;
17449;SDS011;8842;51.244;7.102;2024-03-23T01:59:31;13.13;;;12.43;;
17449;SDS011;8842;51.244;7.102;2024-03-23T02:04:35;13.30;;;12.60;;
17449;SDS011;8842;51.244;7.102;2024-03-23T02:09:47;13.63;;;12.93;;
17449;SDS011;8842;51.244;7.102;2024-03-23T02:14:51;13.00;;;12.30;;
17449;SDS011;8842;51.244;7.102;2024-03-23T02:20:03;13.30;;;12.60;;
17449;SDS011;8842;51.244;7.102;2024-03-23T02:25:08;13.30;;;12.60;;
17449;SDS011;8842;51.244;7.102;2024-03-23T02:30:20;13.10;;;12.40;;
17449;SDS011;8842;51.244;7.102;2024-03-23T02:35:24;13.40;;;12.70;;
17449;SDS011;8842;51.244;7.102;2024-03-23T02:40:28;13.07;;;12.37;;
17449;SDS011;8842;51.244;7.102;2024-03-23T02:45:40;13.40;;;12.70;;
17449;SDS011;8842;51.244;7.102;2024-03-23T02:50:44;13.90;;;13.20;;
17449;SDS011;8842;51.244;7.102;2024-03-23T02:55:57;13.30;;;12.60;;
17449;SDS011;8842;51.244;7.102;2024-03-23T03:01:01;13.30;;;12.60;;
17449;SDS011;8842;51.244;7.102;2024-03-23T03:06:06;13.10;;;12.40;;
17449;SDS011;8842;51.244;7.102;2024-03-23T03:11:20;13.37;;;12.67;;
17449;SDS011;8842;51.244;7.102;2024-03-23T03:16:24;13.50;;;12.80;;
17449;SDS011;8842;51.244;7.102;2024-03-23T03:26:39;13.17;;;12.47;;
17449;SDS011;8842;51.244;7.102;2024-03-23T03:31:43;13.10;;;12.40;;
17449;SDS011;8842;51.244;7.102;2024-03-23T03:36:55;13.30;;;12.60;;
17449;SDS011;8842;51.244;7.102;2024-03-23T03:42:00;13.57;;;12.87;;
17449;SDS011;8842;51.244;7.102;2024-03-23T03:47:12;13.80;;;13.10;;
17449;SDS011;8842;51.244;7.102;2024-03-23T03:52:16;13.40;;;12.70;;
17449;SDS011;8842;51.244;7.102;2024-03-23T03:57:20;13.10;;;12.40;;
17449;SDS011;8842;51.244;7.102;2024-03-23T04:02:24;13.07;;;12.37;;
17449;SDS011;8842;51.244;7.102;2024-03-23T04:07:28;13.63;;;12.93;;
17449;SDS011;8842;51.244;7.102;2024-03-23T04:12:32;13.57;;;12.87;;
17449;SDS011;8842;51.244;7.102;2024-03-23T04:17:36;13.87;;;13.17;;
17449;SDS011;8842;51.244;7.102;2024-03-23T04:22:40;13.73;;;13.03;;
17449;SDS011;8842;51.244;7.102;2024-03-23T04:27:52;14.07;;;13.37;;
17449;SDS011;8842;51.244;7.102;2024-03-23T04:32:56;14.07;;;13.37;;
17449;SDS011;8842;51.244;7.102;2024-03-23T04:38:01;14.10;;;13.40;;
17449;SDS011;8842;51.244;7.102;2024-03-23T04:43:05;13.70;;;13.00;;
17449;SDS011;8842;51.244;7.102;2024-03-23T04:48:09;14.17;;;13.47;;
17449;SDS011;8842;51.244;7.102;2024-03-23T04:53:14;14.10;;;13.40;;
17449;SDS011;8842;51.244;7.102;2024-03-23T04:58:18;14.00;;;13.30;;
17449;SDS011;8842;51.244;7.102;2024-03-23T05:03:23;14.00;;;13.30;;
17449;SDS011;8842;51.244;7.102;2024-03-23T05:08:27;13.77;;;13.07;;
17449;SDS011;8842;51.244;7.102;2024-03-23T05:13:31;13.60;;;12.90;;
17449;SDS011;8842;51.244;7.102;2024-03-23T05:18:43;13.20;;;12.50;;
17449;SDS011;8842;51.244;7.102;2024-03-23T05:23:47;13.43;;;12.73;;
17449;SDS011;8842;51.244;7.102;2024-03-23T05:28:51;13.20;;;12.50;;
17449;SDS011;8842;51.244;7.102;2024-03-23T05:34:03;12.83;;;12.13;;
17449;SDS011;8842;51.244;7.102;2024-03-23T05:39:07;13.13;;;12.43;;
17449;SDS011;8842;51.244;7.102;2024-03-23T05:44:31;13.20;;;12.50;;
17449;SDS011;8842;51.244;7.102;2024-03-23T05:49:39;13.97;;;13.27;;
17449;SDS011;8842;51.244;7.102;2024-03-23T05:55:16;13.50;;;12.80;;
17449;SDS011;8842;51.244;7.102;2024-03-23T06:00:20;13.47;;;12.77;;
17449;SDS011;8842;51.244;7.102;2024-03-23T06:05:32;13.80;;;13.10;;
17449;SDS011;8842;51.244;7.102;2024-03-23T06:10:38;14.00;;;13.30;;
17449;SDS011;8842;51.244;7.102;2024-03-23T06:15:42;13.97;;;13.27;;
17449;SDS011;8842;51.244;7.102;2024-03-23T06:20:54;13.90;;;13.20;;
17449;SDS011;8842;51.244;7.102;2024-03-23T06:25:58;13.60;;;12.90;;
17449;SDS011;8842;51.244;7.102;2024-03-23T06:31:02;14.40;;;13.60;;
17449;SDS011;8842;51.244;7.102;2024-03-23T06:36:09;14.60;;;13.80;;
17449;SDS011;8842;51.244;7.102;2024-03-23T06:41:23;14.70;;;13.90;;
17449;SDS011;8842;51.244;7.102;2024-03-23T06:46:27;14.97;;;14.17;;
17449;SDS011;8842;51.244;7.102;2024-03-23T06:51:39;14.80;;;14.00;;
17449;SDS011;8842;51.244;7.102;2024-03-23T06:56:44;14.93;;;14.13;;
17449;SDS011;8842;51.244;7.102;2024-03-23T07:01:55;15.20;;;14.40;;
17449;SDS011;8842;51.244;7.102;2024-03-23T07:06:59;15.23;;;14.43;;
17449;SDS011;8842;51.244;7.102;2024-03-23T07:12:05;15.13;;;14.33;;
17449;SDS011;8842;51.244;7.102;2024-03-23T07:17:17;15.17;;;14.37;;
17449;SDS011;8842;51.244;7.102;2024-03-23T07:22:21;15.80;;;15.00;;
17449;SDS011;8842;51.244;7.102;2024-03-23T07:27:35;14.50;;;13.70;;
17449;SDS011;8842;51.244;7.102;2024-03-23T07:37:50;14.03;;;13.33;;
17449;SDS011;8842;51.244;7.102;2024-03-23T07:42:54;14.97;;;14.17;;
17449;SDS011;8842;51.244;7.102;2024-03-23T07:48:07;14.60;;;13.80;;
17449;SDS011;8842;51.244;7.102;2024-03-23T07:53:11;14.20;;;13.50;;
17449;SDS011;8842;51.244;7.102;2024-03-23T07:58:23;14.00;;;13.30;;
17449;SDS011;8842;51.244;7.102;2024-03-23T08:03:27;13.80;;;13.10;;
17449;SDS011;8842;51.244;7.102;2024-03-23T08:08:31;14.40;;;13.60;;
17449;SDS011;8842;51.244;7.102;2024-03-23T08:13:35;13.17;;;12.47;;
17449;SDS011;8842;51.244;7.102;2024-03-23T08:18:47;14.70;;;13.90;;
17449;SDS011;8842;51.244;7.102;2024-03-23T08:23:51;13.43;;;12.73;;
17449;SDS011;8842;51.244;7.102;2024-03-23T08:29:03;14.00;;;13.30;;
17449;SDS011;8842;51.244;7.102;2024-03-23T08:34:07;13.60;;;12.90;;
17449;SDS011;8842;51.244;7.102;2024-03-23T08:39:11;13.20;;;12.50;;
17449;SDS011;8842;51.244;7.102;2024-03-23T08:44:16;12.30;;;11.70;;
17449;SDS011;8842;51.244;7.102;2024-03-23T08:49:20;12.80;;;12.10;;
17449;SDS011;8842;51.244;7.102;2024-03-23T08:54:31;12.50;;;11.90;;
17449;SDS011;8842;51.244;7.102;2024-03-23T08:59:37;12.60;;;11.90;;
17449;SDS011;8842;51.244;7.102;2024-03-23T09:04:50;11.77;;;11.17;;
17449;SDS011;8842;51.244;7.102;2024-03-23T09:09:54;12.70;;;12.00;;
17449;SDS011;8842;51.244;7.102;2024-03-23T09:15:08;11.63;;;11.03;;
17449;SDS011;8842;51.244;7.102;2024-03-23T09:20:13;13.33;;;12.63;;
17449;SDS011;8842;51.244;7.102;2024-03-23T09:25:24;13.73;;;13.03;;
17449;SDS011;8842;51.244;7.102;2024-03-23T09:30:29;13.87;;;13.17;;
17449;SDS011;8842;51.244;7.102;2024-03-23T09:40:44;13.70;;;13.00;;
17449;SDS011;8842;51.244;7.102;2024-03-23T09:45:50;13.33;;;12.63;;
17449;SDS011;8842;51.244;7.102;2024-03-23T09:51:03;13.40;;;12.70;;
17449;SDS011;8842;51.244;7.102;2024-03-23T09:56:07;12.70;;;12.00;;
17449;SDS011;8842;51.244;7.102;2024-03-23T10:01:12;12.80;;;12.10;;
17449;SDS011;8842;51.244;7.102;2024-03-23T10:06:16;12.10;;;11.50;;
17449;SDS011;8842;51.244;7.102;2024-03-23T10:11:32;9.90;;;9.40;;
17449;SDS011;8842;51.244;7.102;2024-03-23T10:16:36;9.90;;;9.40;;
17449;SDS011;8842;51.244;7.102;2024-03-23T10:21:55;10.60;;;10.10;;
17449;SDS011;8842;51.244;7.102;2024-03-23T10:26:59;10.53;;;10.03;;
17449;SDS011;8842;51.244;7.102;2024-03-23T10:32:12;9.50;;;9.00;;
17449;SDS011;8842;51.244;7.102;2024-03-23T10:37:19;8.90;;;8.50;;
17449;SDS011;8842;51.244;7.102;2024-03-23T10:42:25;10.20;;;9.70;;
17449;SDS011;8842;51.244;7.102;2024-03-23T10:47:37;9.90;;;9.40;;
17449;SDS011;8842;51.244;7.102;2024-03-23T10:52:41;9.77;;;9.27;;
17449;SDS011;8842;51.244;7.102;2024-03-23T10:57:55;10.10;;;9.60;;
17449;SDS011;8842;51.244;7.102;2024-03-23T11:08:29;11.17;;;10.57;;
17449;SDS011;8842;51.244;7.102;2024-03-23T11:18:45;12.00;;;11.40;;
17449;SDS011;8842;51.244;7.102;2024-03-23T11:23:49;12.00;;;11.40;;
17449;SDS011;8842;51.244;7.102;2024-03-23T11:29:09;12.30;;;11.70;;
17449;SDS011;8842;51.244;7.102;2024-03-23T11:34:13;11.93;;;11.33;;
17449;SDS011;8842;51.244;7.102;2024-03-23T11:39:19;11.77;;;11.17;;
17449;SDS011;8842;51.244;7.102;2024-03-23T11:44:25;11.97;;;11.37;;
17449;SDS011;8842;51.244;7.102;2024-03-23T11:49:29;12.20;;;11.60;;
17449;SDS011;8842;51.244;7.102;2024-03-23T11:54:33;10.67;;;10.17;;
17449;SDS011;8842;51.244;7.102;2024-03-23T11:59:38;11.50;;;10.90;;
17449;SDS011;8842;51.244;7.102;2024-03-23T12:04:43;9.00;;;8.60;;
17449;SDS011;8842;51.244;7.102;2024-03-23T12:09:47;8.40;;;8.00;;
17449;SDS011;8842;51.244;7.102;2024-03-23T12:15:06;9.30;;;8.80;;
17449;SDS011;8842;51.244;7.102;2024-03-23T12:20:11;9.30;;;8.83;;
17449;SDS011;8842;51.244;7.102;2024-03-23T12:25:16;11.50;;;10.90;;
17449;SDS011;8842;51.244;7.102;2024-03-23T12:30:20;11.43;;;10.83;;
17449;SDS011;8842;51.244;7.102;2024-03-23T12:35:24;11.90;;;11.30;;
17449;SDS011;8842;51.244;7.102;2024-03-23T12:40:36;12.40;;;11.80;;
17449;SDS011;8842;51.244;7.102;2024-03-23T12:45:40;12.00;;;11.40;;
17449;SDS011;8842;51.244;7.102;2024-03-23T12:50:54;12.30;;;11.70;;
17449;SDS011;8842;51.244;7.102;2024-03-23T12:55:58;13.00;;;12.30;;
17449;SDS011;8842;51.244;7.102;2024-03-23T13:01:03;12.37;;;11.77;;
17449;SDS011;8842;51.244;7.102;2024-03-23T13:06:08;12.80;;;12.10;;
17449;SDS011;8842;51.244;7.102;2024-03-23T13:11:20;11.93;;;11.33;;
17449;SDS011;8842;51.244;7.102;2024-03-23T13:16:24;12.20;;;11.60;;
17449;SDS011;8842;51.244;7.102;2024-03-23T13:26:57;10.20;;;9.70;;
17449;SDS011;8842;51.244;7.102;2024-03-23T13:32:37;7.90;;;7.50;;
17449;SDS011;8842;51.244;7.102;2024-03-23T13:37:49;8.40;;;8.00;;
17449;SDS011;8842;51.244;7.102;2024-03-23T13:42:53;10.23;;;9.73;;
17449;SDS011;8842;51.244;7.102;2024-03-23T13:48:05;10.33;;;9.83;;
17449;SDS011;8842;51.244;7.102;2024-03-23T13:53:11;10.90;;;10.33;;
17449;SDS011;8842;51.244;7.102;2024-03-23T13:58:22;11.30;;;10.70;;
17449;SDS011;8842;51.244;7.102;2024-03-23T14:03:28;11.50;;;10.90;;
17449;SDS011;8842;51.244;7.102;2024-03-23T14:08:32;11.30;;;10.70;;
17449;SDS011;8842;51.244;7.102;2024-03-23T14:13:45;11.13;;;10.53;;
17449;SDS011;8842;51.244;7.102;2024-03-23T14:18:49;11.40;;;10.80;;
17449;SDS011;8842;51.244;7.102;2024-03-23T14:24:01;11.70;;;11.10;;
17449;SDS011;8842;51.244;7.102;2024-03-23T14:29:08;10.60;;;10.10;;
17449;SDS011;8842;51.244;7.102;2024-03-23T14:34:13;9.10;;;8.70;;
17449;SDS011;8842;51.244;7.102;2024-03-23T14:39:17;8.40;;;8.00;;
17449;SDS011;8842;51.244;7.102;2024-03-23T14:44:23;7.90;;;7.50;;
17449;SDS011;8842;51.244;7.102;2024-03-23T14:49:28;6.90;;;6.60;;
17449;SDS011;8842;51.244;7.102;2024-03-23T14:54:32;6.30;;;6.00;;
17449;SDS011;8842;51.244;7.102;2024-03-23T14:59:44;6.60;;;6.30;;
17449;SDS011;8842;51.244;7.102;2024-03-23T15:04:49;7.10;;;6.80;;
17449;SDS011;8842;51.244;7.102;2024-03-23T15:09:53;7.10;;;6.80;;
17449;SDS011;8842;51.244;7.102;2024-03-23T15:14:57;7.17;;;6.83;;
17449;SDS011;8842;51.244;7.102;2024-03-23T15:20:01;6.80;;;6.50;;
17449;SDS011;8842;51.244;7.102;2024-03-23T15:25:13;6.53;;;6.23;;
17449;SDS011;8842;51.244;7.102;2024-03-23T15:30:17;6.90;;;6.60;;
17449;SDS011;8842;51.244;7.102;2024-03-23T15:35:22;7.10;;;6.80;;
17449;SDS011;8842;51.244;7.102;2024-03-23T15:40:26;6.60;;;6.30;;
17449;SDS011;8842;51.244;7.102;2024-03-23T15:45:37;6.70;;;6.40;;
17449;SDS011;8842;51.244;7.102;2024-03-23T15:50:42;6.47;;;6.17;;
17449;SDS011;8842;51.244;7.102;2024-03-23T15:55:55;6.60;;;6.30;;
17449;SDS011;8842;51.244;7.102;2024-03-23T16:01:00;6.30;;;6.00;;
17449;SDS011;8842;51.244;7.102;2024-03-23T16:06:06;10.50;;;6.13;;
17449;SDS011;8842;51.244;7.102;2024-03-23T16:11:11;6.20;;;5.90;;
17449;SDS011;8842;51.244;7.102;2024-03-23T16:16:15;6.53;;;6.23;;
17449;SDS011;8842;51.244;7.102;2024-03-23T16:21:19;6.00;;;5.70;;
17449;SDS011;8842;51.244;7.102;2024-03-23T16:26:23;5.80;;;5.60;;
17449;SDS011;8842;51.244;7.102;2024-03-23T16:31:27;6.00;;;5.70;;
17449;SDS011;8842;51.244;7.102;2024-03-23T16:36:31;6.00;;;5.70;;
17449;SDS011;8842;51.244;7.102;2024-03-23T16:41:35;6.00;;;5.70;;
17449;SDS011;8842;51.244;7.102;2024-03-23T16:46:47;6.10;;;5.80;;
17449;SDS011;8842;51.244;7.102;2024-03-23T16:51:51;6.30;;;6.00;;
17449;SDS011;8842;51.244;7.102;2024-03-23T16:56:55;5.90;;;5.60;;
17449;SDS011;8842;51.244;7.102;2024-03-23T17:02:07;5.60;;;5.40;;
17449;SDS011;8842;51.244;7.102;2024-03-23T17:07:11;5.70;;;5.40;;
17449;SDS011;8842;51.244;7.102;2024-03-23T17:12:23;5.20;;;5.00;;
17449;SDS011;8842;51.244;7.102;2024-03-23T17:17:27;5.30;;;5.10;;
17449;SDS011;8842;51.244;7.102;2024-03-23T17:22:31;5.50;;;5.30;;
17449;SDS011;8842;51.244;7.102;2024-03-23T17:27:35;5.67;;;5.47;;
17449;SDS011;8842;51.244;7.102;2024-03-23T17:32:39;5.30;;;5.10;;
17449;SDS011;8842;51.244;7.102;2024-03-23T17:37:45;5.40;;;5.20;;
17449;SDS011;8842;51.244;7.102;2024-03-23T17:42:49;5.00;;;4.80;;
17449;SDS011;8842;51.244;7.102;2024-03-23T17:47:54;4.30;;;4.10;;
17449;SDS011;8842;51.244;7.102;2024-03-23T17:52:59;5.20;;;5.00;;
17449;SDS011;8842;51.244;7.102;2024-03-23T17:58:03;8.30;;;7.90;;
17449;SDS011;8842;51.244;7.102;2024-03-23T18:03:08;11.20;;;10.60;;
17449;SDS011;8842;51.244;7.102;2024-03-23T18:08:12;13.23;;;12.53;;
17449;SDS011;8842;51.244;7.102;2024-03-23T18:13:16;14.00;;;13.30;;
17449;SDS011;8842;51.244;7.102;2024-03-23T18:18:20;14.60;;;13.80;;
17449;SDS011;8842;51.244;7.102;2024-03-23T18:23:24;14.80;;;14.00;;
17449;SDS011;8842;51.244;7.102;2024-03-23T18:28:28;15.17;;;14.37;;
17449;SDS011;8842;51.244;7.102;2024-03-23T18:33:40;15.00;;;14.20;;
17449;SDS011;8842;51.244;7.102;2024-03-23T18:38:44;15.17;;;14.37;;
17449;SDS011;8842;51.244;7.102;2024-03-23T18:43:58;15.30;;;14.50;;
17449;SDS011;8842;51.244;7.102;2024-03-23T18:49:03;15.43;;;14.63;;
17449;SDS011;8842;51.244;7.102;2024-03-23T18:54:07;15.47;;;14.67;;
17449;SDS011;8842;51.244;7.102;2024-03-23T18:59:11;15.37;;;14.57;;
17449;SDS011;8842;51.244;7.102;2024-03-23T19:04:15;15.10;;;14.30;;
17449;SDS011;8842;51.244;7.102;2024-03-23T19:09:27;15.33;;;14.53;;
17449;SDS011;8842;51.244;7.102;2024-03-23T19:14:31;15.30;;;14.50;;
17449;SDS011;8842;51.244;7.102;2024-03-23T19:19:45;15.30;;;14.50;;
17449;SDS011;8842;51.244;7.102;2024-03-23T19:24:49;15.10;;;14.30;;
17449;SDS011;8842;51.244;7.102;2024-03-23T19:30:01;15.07;;;14.27;;
17449;SDS011;8842;51.244;7.102;2024-03-23T19:35:07;15.60;;;14.80;;
17449;SDS011;8842;51.244;7.102;2024-03-23T19:40:12;15.90;;;15.10;;
17449;SDS011;8842;51.244;7.102;2024-03-23T19:45:24;15.80;;;15.00;;
17449;SDS011;8842;51.244;7.102;2024-03-23T19:50:28;15.67;;;14.87;;
17449;SDS011;8842;51.244;7.102;2024-03-23T19:55:32;15.40;;;14.60;;
17449;SDS011;8842;51.244;7.102;2024-03-23T20:00:44;15.27;;;14.47;;
17449;SDS011;8842;51.244;7.102;2024-03-23T20:05:56;15.60;;;14.80;;
17449;SDS011;8842;51.244;7.102;2024-03-23T20:11:01;15.63;;;14.83;;
17449;SDS011;8842;51.244;7.102;2024-03-23T20:16:13;15.60;;;14.80;;
17449;SDS011;8842;51.244;7.102;2024-03-23T20:21:17;15.40;;;14.60;;
17449;SDS011;8842;51.244;7.102;2024-03-23T20:26:28;15.17;;;14.37;;
17449;SDS011;8842;51.244;7.102;2024-03-23T20:31:32;15.50;;;14.70;;
17449;SDS011;8842;51.244;7.102;2024-03-23T20:36:44;15.57;;;14.77;;
17449;SDS011;8842;51.244;7.102;2024-03-23T20:41:48;15.70;;;14.90;;
17449;SDS011;8842;51.244;7.102;2024-03-23T20:47:00;15.80;;;15.00;;
17449;SDS011;8842;51.244;7.102;2024-03-23T20:52:05;15.50;;;14.70;;
17449;SDS011;8842;51.244;7.102;2024-03-23T20:57:16;16.10;;;15.20;;
17449;SDS011;8842;51.244;7.102;2024-03-23T21:02:21;16.00;;;15.20;;
17449;SDS011;8842;51.244;7.102;2024-03-23T21:07:27;15.73;;;14.93;;
17449;SDS011;8842;51.244;7.102;2024-03-23T21:12:31;16.20;;;15.30;;
17449;SDS011;8842;51.244;7.102;2024-03-23T21:17:35;15.93;;;15.03;;
17449;SDS011;8842;51.244;7.102;2024-03-23T21:22:39;15.90;;;15.00;;
17449;SDS011;8842;51.244;7.102;2024-03-23T21:27:51;16.63;;;15.73;;
17449;SDS011;8842;51.244;7.102;2024-03-23T21:32:55;15.47;;;14.67;;
17449;SDS011;8842;51.244;7.102;2024-03-23T21:38:09;15.43;;;14.63;;
17449;SDS011;8842;51.244;7.102;2024-03-23T21:43:13;15.43;;;14.63;;
17449;SDS011;8842;51.244;7.102;2024-03-23T21:48:17;15.50;;;14.70;;
17449;SDS011;8842;51.244;7.102;2024-03-23T21:53:29;15.53;;;14.73;;
17449;SDS011;8842;51.244;7.102;2024-03-23T21:58:33;15.53;;;14.73;;
17449;SDS011;8842;51.244;7.102;2024-03-23T22:03:45;15.50;;;14.70;;
17449;SDS011;8842;51.244;7.102;2024-03-23T22:08:49;15.30;;;14.50;;
17449;SDS011;8842;51.244;7.102;2024-03-23T22:14:03;15.40;;;14.60;;
17449;SDS011;8842;51.244;7.102;2024-03-23T22:19:07;13.97;;;13.27;;
17449;SDS011;8842;51.244;7.102;2024-03-23T22:24:22;13.73;;;13.03;;
17449;SDS011;8842;51.244;7.102;2024-03-23T22:29:26;13.73;;;13.03;;
17449;SDS011;8842;51.244;7.102;2024-03-23T22:34:30;13.33;;;12.63;;
17449;SDS011;8842;51.244;7.102;2024-03-23T22:39:34;13.40;;;12.70;;
17449;SDS011;8842;51.244;7.102;2024-03-23T22:49:49;13.20;;;12.50;;
17449;SDS011;8842;51.244;7.102;2024-03-23T22:54:53;13.50;;;12.80;;
17449;SDS011;8842;51.244;7.102;2024-03-23T23:00:06;13.17;;;12.47;;
17449;SDS011;8842;51.244;7.102;2024-03-23T23:05:11;11.83;;;11.23;;
17449;SDS011;8842;51.244;7.102;2024-03-23T23:10:23;12.70;;;12.00;;
17449;SDS011;8842;51.244;7.102;2024-03-23T23:15:37;12.70;;;12.00;;
17449;SDS011;8842;51.244;7.102;2024-03-23T23:20:42;12.97;;;12.27;;
17449;SDS011;8842;51.244;7.102;2024-03-23T23:25:56;12.67;;;11.97;;
17449;SDS011;8842;51.244;7.102;2024-03-23T23:31:00;12.57;;;11.87;;
17449;SDS011;8842;51.244;7.102;2024-03-23T23:36:14;12.27;;;11.67;;
17449;SDS011;8842;51.244;7.102;2024-03-23T23:41:19;12.00;;;11.40;;
17449;SDS011;8842;51.244;7.102;2024-03-23T23:46:30;11.50;;;10.90;;
17449;SDS011;8842;51.244;7.102;2024-03-23T23:51:34;11.77;;;11.17;;
17449;SDS011;8842;51.244;7.102;2024-03-23T23:56:38;11.90;;;11.30;;
